Aviation Digital Data Service (ADDS)

Output produced by METARs form (2121 UTC 25 February 2018)
found at http://aviationweather.gov/adds/metars/
 
METAR text: KLAR 252053Z AUTO 26034G45KT 10SM CLR M05/M15 A2976 RMK AO2 PK WND 23047/2001 SLP126 T10501150 58008
Conditions at: KLAR (LARAMIE , WY, US) observed 2053 UTC 25 February 2018
Temperature: -5.0°C (23°F)
Dewpoint: -15.0°C (5°F) [RH = 45%]
Pressure (altimeter): 29.76 inches Hg (1007.9 mb)
[Sea-level pressure: 1012.6 mb]
Winds: from the W (260 degrees) at 39 MPH (34 knots; 17.7 m/s)
gusting to 52 MPH (45 knots; 23.4 m/s)
Visibility: 10 or more miles (16+ km)
Ceiling: at least 12,000 feet AGL
Clouds: sky clear below 12,000 feet AGL
Weather: automated observation with no human augmentation;
there may or may not be significant weather present at this time